sensor_id;sensor_type;location;lat;lon;timestamp;pressure;altitude;pressure_sealevel;temperature;humidity
54562;BME280;69047;53.358;-1.486;2024-02-16T00:02:20;99485.13;;;12.97;75.96
54562;BME280;69047;53.358;-1.486;2024-02-16T00:04:49;99492.00;;;13.13;75.43
54562;BME280;69047;53.358;-1.486;2024-02-16T00:07:14;99492.94;;;13.03;75.95
54562;BME280;69047;53.358;-1.486;2024-02-16T00:09:42;99485.59;;;13.04;75.82
54562;BME280;69047;53.358;-1.486;2024-02-16T00:12:08;99493.03;;;13.17;75.92
54562;BME280;69047;53.358;-1.486;2024-02-16T00:14:36;99499.31;;;12.94;75.97
54562;BME280;69047;53.358;-1.486;2024-02-16T00:17:02;99506.00;;;12.83;76.73
54562;BME280;69047;53.358;-1.486;2024-02-16T00:19:28;99508.94;;;12.67;77.28
54562;BME280;69047;53.358;-1.486;2024-02-16T00:21:53;99511.25;;;12.55;77.58
54562;BME280;69047;53.358;-1.486;2024-02-16T00:24:19;99515.16;;;12.49;78.28
54562;BME280;69047;53.358;-1.486;2024-02-16T00:26:44;99513.66;;;12.38;78.91
54562;BME280;69047;53.358;-1.486;2024-02-16T00:29:10;99518.63;;;12.31;78.80
54562;BME280;69047;53.358;-1.486;2024-02-16T00:31:36;99524.13;;;12.26;79.09
54562;BME280;69047;53.358;-1.486;2024-02-16T00:34:02;99527.53;;;12.13;80.13
54562;BME280;69047;53.358;-1.486;2024-02-16T00:36:27;99529.50;;;12.07;80.09
54562;BME280;69047;53.358;-1.486;2024-02-16T00:38:55;99522.22;;;12.03;79.95
54562;BME280;69047;53.358;-1.486;2024-02-16T00:41:22;99520.66;;;12.20;80.11
54562;BME280;69047;53.358;-1.486;2024-02-16T00:43:49;99524.88;;;12.08;80.45
54562;BME280;69047;53.358;-1.486;2024-02-16T00:46:14;99522.63;;;12.15;80.56
54562;BME280;69047;53.358;-1.486;2024-02-16T00:48:40;99527.75;;;11.93;81.11
54562;BME280;69047;53.358;-1.486;2024-02-16T00:51:05;99534.00;;;12.17;80.87
54562;BME280;69047;53.358;-1.486;2024-02-16T00:53:31;99530.81;;;12.10;80.51
54562;BME280;69047;53.358;-1.486;2024-02-16T00:55:56;99526.69;;;12.17;80.78
54562;BME280;69047;53.358;-1.486;2024-02-16T00:58:22;99538.19;;;12.04;81.13
54562;BME280;69047;53.358;-1.486;2024-02-16T01:00:47;99544.34;;;12.15;80.88
54562;BME280;69047;53.358;-1.486;2024-02-16T01:03:13;99547.41;;;12.08;81.46
54562;BME280;69047;53.358;-1.486;2024-02-16T01:05:39;99552.06;;;12.03;82.79
54562;BME280;69047;53.358;-1.486;2024-02-16T01:08:06;99550.34;;;12.12;83.11
54562;BME280;69047;53.358;-1.486;2024-02-16T01:10:31;99546.47;;;12.18;82.74
54562;BME280;69047;53.358;-1.486;2024-02-16T01:12:57;99544.91;;;12.36;82.09
54562;BME280;69047;53.358;-1.486;2024-02-16T01:15:26;99540.06;;;12.33;82.49
54562;BME280;69047;53.358;-1.486;2024-02-16T01:17:53;99537.59;;;12.36;81.69
54562;BME280;69047;53.358;-1.486;2024-02-16T01:20:18;99541.50;;;12.01;83.00
54562;BME280;69047;53.358;-1.486;2024-02-16T01:22:45;99545.53;;;12.28;82.03
54562;BME280;69047;53.358;-1.486;2024-02-16T01:25:10;99546.59;;;12.32;81.57
54562;BME280;69047;53.358;-1.486;2024-02-16T01:27:36;99545.59;;;12.46;81.05
54562;BME280;69047;53.358;-1.486;2024-02-16T01:30:02;99545.47;;;12.56;80.54
54562;BME280;69047;53.358;-1.486;2024-02-16T01:32:28;99534.03;;;12.59;79.94
54562;BME280;69047;53.358;-1.486;2024-02-16T01:34:53;99534.53;;;12.61;79.99
54562;BME280;69047;53.358;-1.486;2024-02-16T01:37:18;99535.13;;;12.58;80.08
54562;BME280;69047;53.358;-1.486;2024-02-16T01:39:44;99525.78;;;12.22;81.13
54562;BME280;69047;53.358;-1.486;2024-02-16T01:42:10;99528.66;;;12.07;82.99
54562;BME280;69047;53.358;-1.486;2024-02-16T01:44:36;99535.97;;;12.11;83.03
54562;BME280;69047;53.358;-1.486;2024-02-16T01:47:03;99540.06;;;12.33;81.87
54562;BME280;69047;53.358;-1.486;2024-02-16T01:49:29;99536.63;;;12.46;81.14
54562;BME280;69047;53.358;-1.486;2024-02-16T01:51:55;99542.78;;;12.33;81.87
54562;BME280;69047;53.358;-1.486;2024-02-16T01:54:29;99528.50;;;12.46;81.29
54562;BME280;69047;53.358;-1.486;2024-02-16T01:56:58;99529.25;;;12.51;80.82
54562;BME280;69047;53.358;-1.486;2024-02-16T01:59:24;99535.66;;;12.37;81.29
54562;BME280;69047;53.358;-1.486;2024-02-16T02:01:50;99517.47;;;12.37;81.88
54562;BME280;69047;53.358;-1.486;2024-02-16T02:04:16;99525.78;;;12.46;81.18
54562;BME280;69047;53.358;-1.486;2024-02-16T02:06:41;99533.19;;;12.40;80.98
54562;BME280;69047;53.358;-1.486;2024-02-16T02:09:07;99538.78;;;12.25;81.57
54562;BME280;69047;53.358;-1.486;2024-02-16T02:11:34;99537.47;;;12.23;82.19
54562;BME280;69047;53.358;-1.486;2024-02-16T02:13:59;99543.03;;;12.36;81.62
54562;BME280;69047;53.358;-1.486;2024-02-16T02:16:25;99548.31;;;12.46;81.21
54562;BME280;69047;53.358;-1.486;2024-02-16T02:18:52;99546.91;;;12.49;80.89
54562;BME280;69047;53.358;-1.486;2024-02-16T02:21:17;99546.72;;;12.45;81.00
54562;BME280;69047;53.358;-1.486;2024-02-16T02:23:43;99543.28;;;12.35;81.54
54562;BME280;69047;53.358;-1.486;2024-02-16T02:26:09;99547.00;;;12.44;81.12
54562;BME280;69047;53.358;-1.486;2024-02-16T02:28:34;99552.66;;;12.47;80.75
54562;BME280;69047;53.358;-1.486;2024-02-16T02:31:00;99562.34;;;12.53;80.46
54562;BME280;69047;53.358;-1.486;2024-02-16T02:33:25;99565.06;;;12.53;80.36
54562;BME280;69047;53.358;-1.486;2024-02-16T02:35:50;99574.88;;;12.49;80.22
54562;BME280;69047;53.358;-1.486;2024-02-16T02:38:16;99571.59;;;12.52;80.35
54562;BME280;69047;53.358;-1.486;2024-02-16T02:40:42;99571.94;;;12.46;80.09
54562;BME280;69047;53.358;-1.486;2024-02-16T02:43:07;99571.66;;;12.47;80.02
54562;BME280;69047;53.358;-1.486;2024-02-16T02:45:33;99575.47;;;12.46;80.16
54562;BME280;69047;53.358;-1.486;2024-02-16T02:47:59;99578.81;;;12.38;80.78
54562;BME280;69047;53.358;-1.486;2024-02-16T02:50:25;99580.97;;;12.41;80.37
54562;BME280;69047;53.358;-1.486;2024-02-16T02:52:50;99587.31;;;12.32;79.42
54562;BME280;69047;53.358;-1.486;2024-02-16T02:55:16;99586.47;;;12.36;79.25
54562;BME280;69047;53.358;-1.486;2024-02-16T02:57:41;99596.78;;;12.34;79.44
54562;BME280;69047;53.358;-1.486;2024-02-16T03:00:08;99600.59;;;12.33;79.73
54562;BME280;69047;53.358;-1.486;2024-02-16T03:02:39;99601.00;;;12.45;79.03
54562;BME280;69047;53.358;-1.486;2024-02-16T03:05:08;99600.66;;;12.52;79.06
54562;BME280;69047;53.358;-1.486;2024-02-16T03:07:34;99591.66;;;12.56;79.39
54562;BME280;69047;53.358;-1.486;2024-02-16T03:09:59;99580.81;;;12.28;80.80
54562;BME280;69047;53.358;-1.486;2024-02-16T03:12:25;99579.81;;;12.24;81.10
54562;BME280;69047;53.358;-1.486;2024-02-16T03:14:50;99577.78;;;12.34;80.82
54562;BME280;69047;53.358;-1.486;2024-02-16T03:17:16;99591.06;;;12.36;80.32
54562;BME280;69047;53.358;-1.486;2024-02-16T03:19:41;99587.25;;;12.37;80.23
54562;BME280;69047;53.358;-1.486;2024-02-16T03:22:07;99590.25;;;12.35;80.62
54562;BME280;69047;53.358;-1.486;2024-02-16T03:24:32;99589.09;;;12.41;79.83
54562;BME280;69047;53.358;-1.486;2024-02-16T03:26:58;99586.63;;;12.45;79.63
54562;BME280;69047;53.358;-1.486;2024-02-16T03:29:23;99588.63;;;12.34;79.23
54562;BME280;69047;53.358;-1.486;2024-02-16T03:31:50;99600.41;;;12.25;79.03
54562;BME280;69047;53.358;-1.486;2024-02-16T03:34:27;99601.34;;;12.15;79.29
54562;BME280;69047;53.358;-1.486;2024-02-16T03:36:54;99610.13;;;12.02;79.59
54562;BME280;69047;53.358;-1.486;2024-02-16T03:39:19;99610.38;;;12.05;79.03
54562;BME280;69047;53.358;-1.486;2024-02-16T03:41:45;99612.75;;;12.12;79.19
54562;BME280;69047;53.358;-1.486;2024-02-16T03:44:15;99620.69;;;12.32;78.61
54562;BME280;69047;53.358;-1.486;2024-02-16T03:46:43;99631.22;;;12.39;78.35
54562;BME280;69047;53.358;-1.486;2024-02-16T03:49:09;99618.25;;;12.31;79.00
54562;BME280;69047;53.358;-1.486;2024-02-16T03:51:35;99634.38;;;12.46;79.01
54562;BME280;69047;53.358;-1.486;2024-02-16T03:54:01;99627.22;;;12.31;79.94
54562;BME280;69047;53.358;-1.486;2024-02-16T03:56:27;99630.81;;;12.50;79.26
54562;BME280;69047;53.358;-1.486;2024-02-16T03:58:52;99631.31;;;12.52;78.39
54562;BME280;69047;53.358;-1.486;2024-02-16T04:01:18;99646.78;;;12.57;78.13
54562;BME280;69047;53.358;-1.486;2024-02-16T04:03:43;99635.59;;;12.58;78.34
54562;BME280;69047;53.358;-1.486;2024-02-16T04:06:09;99629.66;;;12.56;78.71
54562;BME280;69047;53.358;-1.486;2024-02-16T04:08:34;99628.19;;;12.40;79.00
54562;BME280;69047;53.358;-1.486;2024-02-16T04:11:00;99632.78;;;12.45;78.40
54562;BME280;69047;53.358;-1.486;2024-02-16T04:13:25;99642.75;;;12.49;78.12
54562;BME280;69047;53.358;-1.486;2024-02-16T04:15:51;99635.78;;;12.43;77.85
54562;BME280;69047;53.358;-1.486;2024-02-16T04:18:16;99644.50;;;12.40;77.75
54562;BME280;69047;53.358;-1.486;2024-02-16T04:20:43;99650.50;;;12.37;77.61
54562;BME280;69047;53.358;-1.486;2024-02-16T04:23:09;99654.16;;;12.51;77.32
54562;BME280;69047;53.358;-1.486;2024-02-16T04:25:34;99652.88;;;12.44;77.02
54562;BME280;69047;53.358;-1.486;2024-02-16T04:28:00;99653.69;;;12.44;77.33
54562;BME280;69047;53.358;-1.486;2024-02-16T04:30:26;99657.22;;;12.45;77.26
54562;BME280;69047;53.358;-1.486;2024-02-16T04:32:51;99660.69;;;12.50;76.81
54562;BME280;69047;53.358;-1.486;2024-02-16T04:35:16;99661.44;;;12.56;76.65
54562;BME280;69047;53.358;-1.486;2024-02-16T04:37:42;99665.72;;;12.62;76.51
54562;BME280;69047;53.358;-1.486;2024-02-16T04:40:08;99667.53;;;12.43;76.99
54562;BME280;69047;53.358;-1.486;2024-02-16T04:42:34;99676.47;;;12.48;77.09
54562;BME280;69047;53.358;-1.486;2024-02-16T04:44:59;99679.31;;;12.62;77.02
54562;BME280;69047;53.358;-1.486;2024-02-16T04:47:25;99668.03;;;12.73;77.36
54562;BME280;69047;53.358;-1.486;2024-02-16T04:49:51;99680.38;;;12.61;76.76
54562;BME280;69047;53.358;-1.486;2024-02-16T04:52:16;99686.84;;;12.41;78.08
54562;BME280;69047;53.358;-1.486;2024-02-16T04:54:41;99683.31;;;12.12;78.52
54562;BME280;69047;53.358;-1.486;2024-02-16T04:57:07;99694.31;;;12.26;78.30
54562;BME280;69047;53.358;-1.486;2024-02-16T04:59:33;99697.91;;;12.21;78.81
54562;BME280;69047;53.358;-1.486;2024-02-16T05:01:58;99701.88;;;12.29;78.34
54562;BME280;69047;53.358;-1.486;2024-02-16T05:04:23;99709.66;;;12.11;78.23
54562;BME280;69047;53.358;-1.486;2024-02-16T05:06:49;99706.06;;;12.16;78.49
54562;BME280;69047;53.358;-1.486;2024-02-16T05:09:16;99716.09;;;12.20;78.53
54562;BME280;69047;53.358;-1.486;2024-02-16T05:11:45;99720.81;;;12.05;78.58
54562;BME280;69047;53.358;-1.486;2024-02-16T05:14:11;99719.75;;;12.01;78.54
54562;BME280;69047;53.358;-1.486;2024-02-16T05:16:44;99720.00;;;12.04;78.67
54562;BME280;69047;53.358;-1.486;2024-02-16T05:19:10;99735.81;;;11.97;78.19
54562;BME280;69047;53.358;-1.486;2024-02-16T05:21:35;99733.00;;;12.07;78.01
54562;BME280;69047;53.358;-1.486;2024-02-16T05:24:01;99745.50;;;12.08;78.10
54562;BME280;69047;53.358;-1.486;2024-02-16T05:26:27;99753.38;;;12.05;77.40
54562;BME280;69047;53.358;-1.486;2024-02-16T05:28:52;99746.31;;;12.04;77.43
54562;BME280;69047;53.358;-1.486;2024-02-16T05:31:18;99749.13;;;11.89;77.06
54562;BME280;69047;53.358;-1.486;2024-02-16T05:33:46;99752.53;;;11.71;76.09
54562;BME280;69047;53.358;-1.486;2024-02-16T05:36:16;99756.81;;;11.82;75.52
54562;BME280;69047;53.358;-1.486;2024-02-16T05:38:43;99758.91;;;11.90;75.02
54562;BME280;69047;53.358;-1.486;2024-02-16T05:41:09;99758.13;;;11.84;75.64
54562;BME280;69047;53.358;-1.486;2024-02-16T05:43:35;99757.31;;;11.84;75.51
54562;BME280;69047;53.358;-1.486;2024-02-16T05:46:00;99757.00;;;11.90;75.14
54562;BME280;69047;53.358;-1.486;2024-02-16T05:48:26;99764.22;;;12.05;74.54
54562;BME280;69047;53.358;-1.486;2024-02-16T05:51:01;99774.34;;;11.94;73.19
54562;BME280;69047;53.358;-1.486;2024-02-16T05:53:27;99771.41;;;11.86;72.54
54562;BME280;69047;53.358;-1.486;2024-02-16T05:55:53;99786.00;;;11.95;72.84
54562;BME280;69047;53.358;-1.486;2024-02-16T05:58:19;99789.72;;;12.09;72.76
54562;BME280;69047;53.358;-1.486;2024-02-16T06:00:44;99793.97;;;12.20;72.98
54562;BME280;69047;53.358;-1.486;2024-02-16T06:03:12;99793.69;;;12.21;73.22
54562;BME280;69047;53.358;-1.486;2024-02-16T06:05:38;99795.38;;;11.74;73.19
54562;BME280;69047;53.358;-1.486;2024-02-16T06:08:04;99801.50;;;11.89;72.36
54562;BME280;69047;53.358;-1.486;2024-02-16T06:10:29;99808.81;;;11.89;72.65
54562;BME280;69047;53.358;-1.486;2024-02-16T06:12:55;99810.09;;;11.42;72.89
54562;BME280;69047;53.358;-1.486;2024-02-16T06:15:24;99810.88;;;11.53;73.99
54562;BME280;69047;53.358;-1.486;2024-02-16T06:17:52;99812.41;;;10.95;73.18
54562;BME280;69047;53.358;-1.486;2024-02-16T06:20:17;99813.97;;;11.21;73.71
54562;BME280;69047;53.358;-1.486;2024-02-16T06:22:43;99815.50;;;11.47;72.51
54562;BME280;69047;53.358;-1.486;2024-02-16T06:25:09;99821.69;;;11.63;72.32
54562;BME280;69047;53.358;-1.486;2024-02-16T06:27:35;99818.28;;;11.27;72.26
54562;BME280;69047;53.358;-1.486;2024-02-16T06:30:02;99817.47;;;11.32;72.06
54562;BME280;69047;53.358;-1.486;2024-02-16T06:32:29;99819.91;;;11.33;70.77
54562;BME280;69047;53.358;-1.486;2024-02-16T06:34:55;99825.28;;;11.43;71.24
54562;BME280;69047;53.358;-1.486;2024-02-16T06:37:20;99820.50;;;11.15;71.76
54562;BME280;69047;53.358;-1.486;2024-02-16T06:39:46;99832.41;;;11.14;71.07
54562;BME280;69047;53.358;-1.486;2024-02-16T06:42:11;99828.41;;;10.91;71.35
54562;BME280;69047;53.358;-1.486;2024-02-16T06:44:38;99826.19;;;11.19;71.85
54562;BME280;69047;53.358;-1.486;2024-02-16T06:47:04;99836.53;;;11.01;72.90
54562;BME280;69047;53.358;-1.486;2024-02-16T06:49:30;99844.41;;;10.68;71.95
54562;BME280;69047;53.358;-1.486;2024-02-16T06:51:55;99847.09;;;10.83;71.65
54562;BME280;69047;53.358;-1.486;2024-02-16T06:54:24;99846.81;;;10.64;72.53
54562;BME280;69047;53.358;-1.486;2024-02-16T06:56:52;99849.81;;;10.73;71.11
54562;BME280;69047;53.358;-1.486;2024-02-16T06:59:18;99859.28;;;10.65;71.42
54562;BME280;69047;53.358;-1.486;2024-02-16T07:01:43;99862.00;;;10.80;70.95
54562;BME280;69047;53.358;-1.486;2024-02-16T07:04:09;99865.25;;;10.67;71.44
54562;BME280;69047;53.358;-1.486;2024-02-16T07:06:35;99866.03;;;10.57;71.68
54562;BME280;69047;53.358;-1.486;2024-02-16T07:09:00;99878.50;;;10.64;71.22
54562;BME280;69047;53.358;-1.486;2024-02-16T07:11:27;99878.50;;;10.59;71.51
54562;BME280;69047;53.358;-1.486;2024-02-16T07:13:52;99879.59;;;10.68;71.52
54562;BME280;69047;53.358;-1.486;2024-02-16T07:16:17;99881.72;;;10.45;71.00
54562;BME280;69047;53.358;-1.486;2024-02-16T07:18:46;99886.34;;;10.45;70.90
54562;BME280;69047;53.358;-1.486;2024-02-16T07:21:11;99897.72;;;10.47;71.09
54562;BME280;69047;53.358;-1.486;2024-02-16T07:23:37;99893.66;;;10.70;70.05
54562;BME280;69047;53.358;-1.486;2024-02-16T07:26:03;99902.59;;;10.75;70.64
54562;BME280;69047;53.358;-1.486;2024-02-16T07:28:29;99911.00;;;10.53;71.46
54562;BME280;69047;53.358;-1.486;2024-02-16T07:30:54;99917.50;;;10.63;71.44
54562;BME280;69047;53.358;-1.486;2024-02-16T07:33:20;99926.72;;;10.72;70.63
54562;BME280;69047;53.358;-1.486;2024-02-16T07:35:45;99925.09;;;10.66;71.39
54562;BME280;69047;53.358;-1.486;2024-02-16T07:38:11;99933.72;;;10.57;72.00
54562;BME280;69047;53.358;-1.486;2024-02-16T07:40:36;99936.72;;;10.76;71.59
54562;BME280;69047;53.358;-1.486;2024-02-16T07:43:02;99939.44;;;10.66;71.95
54562;BME280;69047;53.358;-1.486;2024-02-16T07:45:30;99947.31;;;10.78;71.65
54562;BME280;69047;53.358;-1.486;2024-02-16T07:47:57;99951.34;;;10.65;70.85
54562;BME280;69047;53.358;-1.486;2024-02-16T07:50:23;99951.63;;;10.69;71.35
54562;BME280;69047;53.358;-1.486;2024-02-16T07:52:49;99958.69;;;10.80;71.18
54562;BME280;69047;53.358;-1.486;2024-02-16T07:55:16;99958.94;;;10.78;71.61
54562;BME280;69047;53.358;-1.486;2024-02-16T07:57:46;99964.88;;;10.70;70.93
54562;BME280;69047;53.358;-1.486;2024-02-16T08:00:11;99963.50;;;10.57;72.26
54562;BME280;69047;53.358;-1.486;2024-02-16T08:02:37;99968.41;;;10.76;71.99
54562;BME280;69047;53.358;-1.486;2024-02-16T08:05:04;99980.88;;;10.77;72.14
54562;BME280;69047;53.358;-1.486;2024-02-16T08:07:31;99984.09;;;10.59;72.33
54562;BME280;69047;53.358;-1.486;2024-02-16T08:09:57;99983.31;;;10.68;72.65
54562;BME280;69047;53.358;-1.486;2024-02-16T08:12:22;99991.13;;;10.65;72.37
54562;BME280;69047;53.358;-1.486;2024-02-16T08:14:47;99991.69;;;10.57;72.31
54562;BME280;69047;53.358;-1.486;2024-02-16T08:17:13;100000.63;;;10.62;72.21
54562;BME280;69047;53.358;-1.486;2024-02-16T08:19:38;99991.97;;;10.75;71.99
54562;BME280;69047;53.358;-1.486;2024-02-16T08:22:06;99998.22;;;10.86;72.39
54562;BME280;69047;53.358;-1.486;2024-02-16T08:24:33;99998.47;;;10.79;72.83
54562;BME280;69047;53.358;-1.486;2024-02-16T08:26:58;100007.69;;;10.83;72.52
54562;BME280;69047;53.358;-1.486;2024-02-16T08:29:24;99999.84;;;10.92;72.19
54562;BME280;69047;53.358;-1.486;2024-02-16T08:31:51;100006.91;;;10.98;72.30
54562;BME280;69047;53.358;-1.486;2024-02-16T08:34:29;100011.78;;;11.06;72.19
54562;BME280;69047;53.358;-1.486;2024-02-16T08:36:55;100012.88;;;11.15;71.10
54562;BME280;69047;53.358;-1.486;2024-02-16T08:39:20;100022.09;;;11.24;70.92
54562;BME280;69047;53.358;-1.486;2024-02-16T08:41:46;100028.63;;;11.28;70.89
54562;BME280;69047;53.358;-1.486;2024-02-16T08:44:14;100028.63;;;11.43;70.39
54562;BME280;69047;53.358;-1.486;2024-02-16T08:46:40;100020.72;;;11.57;69.96
54562;BME280;69047;53.358;-1.486;2024-02-16T08:49:06;100028.34;;;11.70;70.52
54562;BME280;69047;53.358;-1.486;2024-02-16T08:51:32;100037.81;;;11.68;70.43
54562;BME280;69047;53.358;-1.486;2024-02-16T08:53:58;100035.66;;;11.54;70.08
54562;BME280;69047;53.358;-1.486;2024-02-16T08:56:24;100039.72;;;11.77;69.89
54562;BME280;69047;53.358;-1.486;2024-02-16T08:58:49;100044.59;;;11.85;69.74
54562;BME280;69047;53.358;-1.486;2024-02-16T09:01:16;100040.81;;;11.81;69.46
54562;BME280;69047;53.358;-1.486;2024-02-16T09:03:42;100038.59;;;11.93;68.94
54562;BME280;69047;53.358;-1.486;2024-02-16T09:06:08;100042.66;;;12.06;69.05
54562;BME280;69047;53.358;-1.486;2024-02-16T09:08:33;100056.75;;;12.08;68.12
54562;BME280;69047;53.358;-1.486;2024-02-16T09:11:04;100057.50;;;12.29;68.01
54562;BME280;69047;53.358;-1.486;2024-02-16T09:13:33;100059.34;;;12.43;67.15
54562;BME280;69047;53.358;-1.486;2024-02-16T09:15:59;100066.94;;;12.51;68.00
54562;BME280;69047;53.358;-1.486;2024-02-16T09:18:25;100070.84;;;12.20;68.56
54562;BME280;69047;53.358;-1.486;2024-02-16T09:20:51;100086.34;;;12.04;68.64
54562;BME280;69047;53.358;-1.486;2024-02-16T09:23:16;100080.31;;;12.33;68.40
54562;BME280;69047;53.358;-1.486;2024-02-16T09:25:41;100087.06;;;12.40;68.81
54562;BME280;69047;53.358;-1.486;2024-02-16T09:28:08;100100.13;;;12.28;68.69
54562;BME280;69047;53.358;-1.486;2024-02-16T09:30:37;100096.59;;;12.28;69.17
54562;BME280;69047;53.358;-1.486;2024-02-16T09:33:03;100102.03;;;12.33;68.77
54562;BME280;69047;53.358;-1.486;2024-02-16T09:35:28;100115.06;;;12.36;69.00
54562;BME280;69047;53.358;-1.486;2024-02-16T09:37:53;100116.09;;;12.40;68.88
54562;BME280;69047;53.358;-1.486;2024-02-16T09:40:19;100117.50;;;12.32;68.96
54562;BME280;69047;53.358;-1.486;2024-02-16T09:42:48;100126.94;;;12.50;68.75
54562;BME280;69047;53.358;-1.486;2024-02-16T09:45:21;100133.47;;;12.49;69.00
54562;BME280;69047;53.358;-1.486;2024-02-16T09:47:50;100135.16;;;12.25;70.52
54562;BME280;69047;53.358;-1.486;2024-02-16T09:50:17;100145.50;;;11.87;71.71
54562;BME280;69047;53.358;-1.486;2024-02-16T09:52:47;100142.78;;;12.07;72.31
54562;BME280;69047;53.358;-1.486;2024-02-16T09:55:13;100146.03;;;12.19;72.74
54562;BME280;69047;53.358;-1.486;2024-02-16T09:57:43;100148.78;;;12.09;72.45
54562;BME280;69047;53.358;-1.486;2024-02-16T10:00:11;100149.28;;;12.01;72.65
54562;BME280;69047;53.358;-1.486;2024-02-16T10:02:43;100151.19;;;11.86;72.50
54562;BME280;69047;53.358;-1.486;2024-02-16T10:05:14;100155.00;;;12.15;73.25
54562;BME280;69047;53.358;-1.486;2024-02-16T10:07:41;100155.25;;;12.18;72.56
54562;BME280;69047;53.358;-1.486;2024-02-16T10:10:06;100155.25;;;12.24;72.38
54562;BME280;69047;53.358;-1.486;2024-02-16T10:12:33;100163.09;;;12.45;70.99
54562;BME280;69047;53.358;-1.486;2024-02-16T10:15:01;100162.31;;;12.30;70.81
54562;BME280;69047;53.358;-1.486;2024-02-16T10:17:29;100170.38;;;12.55;70.87
54562;BME280;69047;53.358;-1.486;2024-02-16T10:19:56;100162.84;;;12.27;71.70
54562;BME280;69047;53.358;-1.486;2024-02-16T10:22:22;100172.25;;;12.64;71.06
54562;BME280;69047;53.358;-1.486;2024-02-16T10:24:48;100174.78;;;12.36;70.84
54562;BME280;69047;53.358;-1.486;2024-02-16T10:27:18;100172.00;;;12.66;69.59
54562;BME280;69047;53.358;-1.486;2024-02-16T10:29:46;100186.13;;;12.68;68.75
54562;BME280;69047;53.358;-1.486;2024-02-16T10:32:14;100176.91;;;12.49;67.71
54562;BME280;69047;53.358;-1.486;2024-02-16T10:34:40;100187.47;;;12.70;67.81
54562;BME280;69047;53.358;-1.486;2024-02-16T10:37:06;100180.88;;;12.82;67.93
54562;BME280;69047;53.358;-1.486;2024-02-16T10:39:34;100187.94;;;12.88;66.69
54562;BME280;69047;53.358;-1.486;2024-02-16T10:42:01;100183.00;;;13.00;67.67
54562;BME280;69047;53.358;-1.486;2024-02-16T10:44:29;100194.44;;;12.92;67.43
54562;BME280;69047;53.358;-1.486;2024-02-16T10:46:57;100190.13;;;12.86;66.54
54562;BME280;69047;53.358;-1.486;2024-02-16T10:49:26;100197.50;;;12.75;66.69
54562;BME280;69047;53.358;-1.486;2024-02-16T10:51:56;100194.69;;;13.10;65.67
54562;BME280;69047;53.358;-1.486;2024-02-16T10:54:32;100206.06;;;13.17;64.63
54562;BME280;69047;53.358;-1.486;2024-02-16T10:56:59;100207.56;;;12.64;66.62
54562;BME280;69047;53.358;-1.486;2024-02-16T10:59:24;100203.84;;;12.35;66.87
54562;BME280;69047;53.358;-1.486;2024-02-16T11:02:00;100224.41;;;12.71;66.40
54562;BME280;69047;53.358;-1.486;2024-02-16T11:04:38;100221.47;;;12.48;65.86
54562;BME280;69047;53.358;-1.486;2024-02-16T11:07:11;100228.00;;;12.42;68.07
54562;BME280;69047;53.358;-1.486;2024-02-16T11:09:39;100225.81;;;12.44;67.95
54562;BME280;69047;53.358;-1.486;2024-02-16T11:12:06;100235.56;;;12.50;67.46
54562;BME280;69047;53.358;-1.486;2024-02-16T11:14:37;100248.09;;;12.20;67.28
54562;BME280;69047;53.358;-1.486;2024-02-16T11:17:15;100243.47;;;12.41;67.27
54562;BME280;69047;53.358;-1.486;2024-02-16T11:19:45;100249.94;;;12.60;67.88
54562;BME280;69047;53.358;-1.486;2024-02-16T11:22:18;100257.03;;;12.56;67.17
54562;BME280;69047;53.358;-1.486;2024-02-16T11:24:45;100263.00;;;12.53;67.08
54562;BME280;69047;53.358;-1.486;2024-02-16T11:27:12;100260.56;;;12.47;67.41
54562;BME280;69047;53.358;-1.486;2024-02-16T11:29:39;100271.66;;;12.70;68.02
54562;BME280;69047;53.358;-1.486;2024-02-16T11:32:05;100283.13;;;12.47;68.45
54562;BME280;69047;53.358;-1.486;2024-02-16T11:34:34;100291.81;;;12.54;68.05
54562;BME280;69047;53.358;-1.486;2024-02-16T11:37:03;100293.41;;;12.65;67.80
54562;BME280;69047;53.358;-1.486;2024-02-16T11:39:30;100305.38;;;12.34;68.09
54562;BME280;69047;53.358;-1.486;2024-02-16T11:42:19;100300.22;;;12.53;67.97
54562;BME280;69047;53.358;-1.486;2024-02-16T11:44:54;100301.56;;;12.70;66.80
54562;BME280;69047;53.358;-1.486;2024-02-16T11:47:24;100301.25;;;12.92;66.59
54562;BME280;69047;53.358;-1.486;2024-02-16T11:50:06;100299.38;;;12.72;66.75
54562;BME280;69047;53.358;-1.486;2024-02-16T11:52:32;100310.25;;;12.57;66.62
54562;BME280;69047;53.358;-1.486;2024-02-16T11:54:58;100312.72;;;12.59;66.73
54562;BME280;69047;53.358;-1.486;2024-02-16T11:57:29;100308.91;;;12.60;67.09
54562;BME280;69047;53.358;-1.486;2024-02-16T11:59:54;100311.88;;;12.63;66.64
54562;BME280;69047;53.358;-1.486;2024-02-16T12:02:24;100314.88;;;12.67;67.00
54562;BME280;69047;53.358;-1.486;2024-02-16T12:04:57;100326.53;;;12.98;66.75
54562;BME280;69047;53.358;-1.486;2024-02-16T12:07:25;100316.19;;;12.95;66.27
54562;BME280;69047;53.358;-1.486;2024-02-16T12:10:00;100326.25;;;13.04;65.57
54562;BME280;69047;53.358;-1.486;2024-02-16T12:12:26;100323.00;;;12.92;66.63
54562;BME280;69047;53.358;-1.486;2024-02-16T12:14:53;100321.63;;;13.05;66.00
54562;BME280;69047;53.358;-1.486;2024-02-16T12:17:18;100331.97;;;13.08;65.88
54562;BME280;69047;53.358;-1.486;2024-02-16T12:19:45;100324.38;;;12.90;66.60
54562;BME280;69047;53.358;-1.486;2024-02-16T12:22:17;100331.44;;;12.86;66.84
54562;BME280;69047;53.358;-1.486;2024-02-16T12:24:44;100332.25;;;12.86;66.60
54562;BME280;69047;53.358;-1.486;2024-02-16T12:27:10;100331.16;;;12.77;66.58
54562;BME280;69047;53.358;-1.486;2024-02-16T12:29:36;100333.03;;;12.97;66.41
54562;BME280;69047;53.358;-1.486;2024-02-16T12:32:01;100337.94;;;13.05;66.09
54562;BME280;69047;53.358;-1.486;2024-02-16T12:34:31;100334.94;;;13.06;66.17
54562;BME280;69047;53.358;-1.486;2024-02-16T12:36:57;100337.41;;;13.08;66.48
54562;BME280;69047;53.358;-1.486;2024-02-16T12:39:22;100339.81;;;13.14;66.40
54562;BME280;69047;53.358;-1.486;2024-02-16T12:41:48;100343.31;;;13.40;65.88
54562;BME280;69047;53.358;-1.486;2024-02-16T12:44:14;100337.41;;;12.88;66.55
54562;BME280;69047;53.358;-1.486;2024-02-16T12:46:40;100345.78;;;13.32;66.31